Time;durP1;ratioP1;P1;durP2;ratioP2;P2;SDS_P1;SDS_P2;PMS_P1;PMS_P2;Temp;Humidity;BMP_temperature;BMP_pressure;BME280_temperature;BME280_humidity;BME280_pressure;Samples;Min_cycle;Max_cycle;Signal;HPM_P1;HPM_P2
2021/09/01 00:01:33;;;;;;;2.30;1.03;;;;;;;;;;5014159;28;20236;-74
2021/09/01 00:03:58;;;;;;;1.00;0.90;;;;;;;;;;5014032;28;20422;-74
2021/09/01 00:06:24;;;;;;;1.13;1.03;;;;;;;;;;5013723;28;20899;-73
2021/09/01 00:08:51;;;;;;;1.00;0.90;;;;;;;;;;5014404;28;20429;-74
2021/09/01 00:11:18;;;;;;;0.90;0.77;;;;;;;;;;5014260;28;20445;-74
2021/09/01 00:13:44;;;;;;;3.08;2.47;;;;;;;;;;5014053;28;20184;-73
2021/09/01 00:16:26;;;;;;;1.17;0.80;;;;;;;;;;5013728;28;20208;-74
2021/09/01 00:18:52;;;;;;;0.80;0.60;;;;;;;;;;4999942;28;20525;-74
2021/09/01 00:21:18;;;;;;;3.00;1.67;;;;;;;;;;5013979;28;20597;-74
2021/09/01 00:23:44;;;;;;;0.80;0.70;;;;;;;;;;5013354;28;20187;-74
2021/09/01 00:26:10;;;;;;;1.30;1.13;;;;;;;;;;5014519;28;20463;-74
2021/09/01 00:28:36;;;;;;;1.67;1.57;;;;;;;;;;5024000;28;20427;-73
2021/09/01 00:31:02;;;;;;;1.33;1.10;;;;;;;;;;5013763;28;20427;-74
2021/09/01 00:33:28;;;;;;;1.30;1.20;;;;;;;;;;5013429;28;20442;-74
2021/09/01 00:35:54;;;;;;;2.20;1.30;;;;;;;;;;5013405;28;20450;-73
2021/09/01 00:38:19;;;;;;;1.37;1.27;;;;;;;;;;5012834;28;20441;-74
2021/09/01 00:40:45;;;;;;;1.07;0.83;;;;;;;;;;5024206;28;20573;-73
2021/09/01 00:43:11;;;;;;;1.80;1.70;;;;;;;;;;5012748;28;20465;-73
2021/09/01 00:45:43;;;;;;;1.50;1.07;;;;;;;;;;5011150;28;20454;-74
2021/09/01 00:48:09;;;;;;;1.20;0.90;;;;;;;;;;5010994;28;20521;-73
2021/09/01 00:50:35;;;;;;;13.20;2.03;;;;;;;;;;5015389;28;20271;-73
2021/09/01 00:53:01;;;;;;;1.50;1.37;;;;;;;;;;5013313;28;20439;-73
2021/09/01 00:55:27;;;;;;;1.33;1.23;;;;;;;;;;5034976;23;20527;-73
2021/09/01 00:57:54;;;;;;;1.25;1.15;;;;;;;;;;5071242;28;20461;-74
2021/09/01 01:03:15;;;;;;;2.10;1.15;;;;;;;;;;5029214;28;20284;-73
2021/09/01 01:05:41;;;;;;;2.50;2.30;;;;;;;;;;5046038;28;20201;-73
2021/09/01 01:08:07;;;;;;;2.23;2.13;;;;;;;;;;5047986;28;20541;-74
2021/09/01 01:10:33;;;;;;;1.10;1.00;;;;;;;;;;5046281;28;20425;-74
2021/09/01 01:12:59;;;;;;;1.42;0.98;;;;;;;;;;5046448;28;20428;-74
2021/09/01 01:15:25;;;;;;;2.40;2.20;;;;;;;;;;5047874;28;20218;-74
2021/09/01 01:17:52;;;;;;;5.15;1.98;;;;;;;;;;5046577;28;20454;-74
2021/09/01 01:20:18;;;;;;;1.00;0.90;;;;;;;;;;5047817;28;20645;-74
2021/09/01 01:22:44;;;;;;;0.80;0.70;;;;;;;;;;5047527;28;20290;-74
2021/09/01 01:25:10;;;;;;;0.93;0.70;;;;;;;;;;5044893;28;20472;-74
2021/09/01 01:27:36;;;;;;;1.73;1.63;;;;;;;;;;5053910;28;20437;-74
2021/09/01 01:30:16;;;;;;;3.10;1.63;;;;;;;;;;5052782;28;20646;-74
2021/09/01 01:32:43;;;;;;;0.90;0.80;;;;;;;;;;5063886;28;20496;-74
2021/09/01 01:35:10;;;;;;;1.45;1.35;;;;;;;;;;5048065;28;20199;-74
2021/09/01 01:37:36;;;;;;;1.13;1.02;;;;;;;;;;5045739;28;20202;-74
2021/09/01 01:40:04;;;;;;;0.85;0.65;;;;;;;;;;5045056;28;20682;-74
2021/09/01 01:42:30;;;;;;;1.00;0.70;;;;;;;;;;5047223;28;20187;-73
2021/09/01 01:44:56;;;;;;;1.63;1.23;;;;;;;;;;5047375;28;20202;-73
2021/09/01 01:47:22;;;;;;;1.43;0.97;;;;;;;;;;5045391;28;20444;-73
2021/09/01 01:49:47;;;;;;;2.38;1.10;;;;;;;;;;5046121;28;20426;-75
2021/09/01 01:52:13;;;;;;;0.80;0.70;;;;;;;;;;5046785;28;20285;-74
2021/09/01 01:54:39;;;;;;;1.20;0.97;;;;;;;;;;5045667;28;20482;-74
2021/09/01 01:57:05;;;;;;;1.37;1.17;;;;;;;;;;5043878;28;20452;-74
2021/09/01 01:59:31;;;;;;;1.40;1.30;;;;;;;;;;5048421;28;20510;-74
2021/09/01 02:01:57;;;;;;;3.57;2.10;;;;;;;;;;5044637;28;20219;-74
2021/09/01 02:04:23;;;;;;;1.67;1.30;;;;;;;;;;5045090;28;20425;-73
2021/09/01 02:06:49;;;;;;;1.43;1.33;;;;;;;;;;5046125;28;20447;-74
2021/09/01 02:09:15;;;;;;;0.80;0.70;;;;;;;;;;5045924;28;20417;-74
2021/09/01 02:11:41;;;;;;;0.80;0.80;;;;;;;;;;5047166;28;20179;-73
2021/09/01 02:14:07;;;;;;;1.70;1.60;;;;;;;;;;5047135;28;20454;-74
2021/09/01 02:16:33;;;;;;;1.00;0.80;;;;;;;;;;5045601;28;20444;-74
2021/09/01 02:18:59;;;;;;;1.30;1.10;;;;;;;;;;5045788;28;20434;-74
2021/09/01 02:21:25;;;;;;;2.50;2.30;;;;;;;;;;5044751;28;20521;-73
2021/09/01 02:23:51;;;;;;;1.80;1.70;;;;;;;;;;5046552;28;20179;-73
2021/09/01 02:26:17;;;;;;;1.10;0.90;;;;;;;;;;5048077;28;20504;-74
2021/09/01 02:28:43;;;;;;;1.35;1.25;;;;;;;;;;5067156;28;20440;-74
2021/09/01 02:31:09;;;;;;;1.63;0.90;;;;;;;;;;5046518;28;20187;-74
2021/09/01 02:33:35;;;;;;;0.80;0.80;;;;;;;;;;5046233;28;20428;-74
2021/09/01 02:36:00;;;;;;;1.00;0.80;;;;;;;;;;5045046;28;20441;-74
2021/09/01 02:38:26;;;;;;;1.03;0.93;;;;;;;;;;5060468;28;20428;-73
2021/09/01 02:40:52;;;;;;;1.60;1.17;;;;;;;;;;5060113;28;20473;-74
2021/09/01 02:43:18;;;;;;;1.33;1.23;;;;;;;;;;5043551;28;20180;-74
2021/09/01 02:45:44;;;;;;;8.37;2.77;;;;;;;;;;5043459;28;20477;-72
2021/09/01 02:48:10;;;;;;;1.40;1.30;;;;;;;;;;5046778;28;20800;-74
2021/09/01 02:50:36;;;;;;;1.63;1.53;;;;;;;;;;5046105;28;20434;-73
2021/09/01 02:53:02;;;;;;;2.90;2.70;;;;;;;;;;5045172;28;20434;-74
2021/09/01 02:55:28;;;;;;;1.42;1.25;;;;;;;;;;5044068;28;21070;-73
2021/09/01 02:57:54;;;;;;;0.90;0.80;;;;;;;;;;5043726;28;20189;-74
2021/09/01 03:00:20;;;;;;;1.20;1.07;;;;;;;;;;5063508;28;20182;-74
2021/09/01 03:02:46;;;;;;;1.40;1.30;;;;;;;;;;5037443;28;20454;-73
2021/09/01 03:05:12;;;;;;;1.13;1.03;;;;;;;;;;5045600;28;20471;-74
2021/09/01 03:07:38;;;;;;;3.73;0.90;;;;;;;;;;5044504;28;20520;-74
2021/09/01 03:10:04;;;;;;;2.90;1.03;;;;;;;;;;5044702;28;20429;-74
2021/09/01 03:12:30;;;;;;;1.20;1.10;;;;;;;;;;5047173;28;20428;-75
2021/09/01 03:14:56;;;;;;;2.00;1.87;;;;;;;;;;5050309;28;20902;-74
2021/09/01 03:17:22;;;;;;;32.07;2.33;;;;;;;;;;5049156;28;20430;-74
2021/09/01 03:19:48;;;;;;;2.23;2.03;;;;;;;;;;5048389;28;20928;-74
2021/09/01 03:22:14;;;;;;;1.10;1.00;;;;;;;;;;5048453;28;20461;-74
2021/09/01 03:24:40;;;;;;;2.00;1.17;;;;;;;;;;5049554;28;20435;-74
2021/09/01 03:27:06;;;;;;;1.17;0.90;;;;;;;;;;5043890;28;20448;-73
2021/09/01 03:29:32;;;;;;;1.52;1.42;;;;;;;;;;5056284;28;20891;-74
2021/09/01 03:31:58;;;;;;;1.73;1.40;;;;;;;;;;5049152;28;20181;-75
2021/09/01 03:34:24;;;;;;;2.00;1.20;;;;;;;;;;5049310;28;20933;-74
2021/09/01 03:36:50;;;;;;;2.10;0.70;;;;;;;;;;5048441;28;20474;-74
2021/09/01 03:39:16;;;;;;;1.43;0.90;;;;;;;;;;5048969;28;20442;-73
2021/09/01 03:41:41;;;;;;;0.93;0.75;;;;;;;;;;5047968;28;20520;-72
2021/09/01 03:44:08;;;;;;;2.15;1.75;;;;;;;;;;5048933;28;20179;-72
2021/09/01 03:46:33;;;;;;;1.17;1.00;;;;;;;;;;5047680;28;20204;-73
2021/09/01 03:48:59;;;;;;;1.20;1.10;;;;;;;;;;5048886;28;20468;-72
2021/09/01 03:51:25;;;;;;;0.80;0.60;;;;;;;;;;5047091;28;20448;-75
2021/09/01 03:53:51;;;;;;;1.30;1.20;;;;;;;;;;5048724;28;20619;-75
2021/09/01 03:56:17;;;;;;;1.00;0.80;;;;;;;;;;5048085;28;20465;-74
2021/09/01 03:58:43;;;;;;;1.83;1.20;;;;;;;;;;5047038;28;20521;-74
2021/09/01 04:01:09;;;;;;;4.63;1.23;;;;;;;;;;5049084;28;20461;-74
2021/09/01 04:03:35;;;;;;;0.80;0.80;;;;;;;;;;5047178;28;20434;-74
2021/09/01 04:06:02;;;;;;;2.60;1.50;;;;;;;;;;5046965;28;20298;-74
2021/09/01 04:08:28;;;;;;;2.03;1.90;;;;;;;;;;5047250;28;20517;-74
2021/09/01 04:10:54;;;;;;;0.80;0.80;;;;;;;;;;5046565;28;20193;-73
2021/09/01 04:13:20;;;;;;;1.20;1.10;;;;;;;;;;5048064;28;20461;-73
2021/09/01 04:15:46;;;;;;;1.33;0.90;;;;;;;;;;5048697;28;20547;-75
2021/09/01 04:18:12;;;;;;;22.93;2.37;;;;;;;;;;5047852;28;20429;-74
2021/09/01 04:20:38;;;;;;;1.70;1.60;;;;;;;;;;5047979;28;20465;-75
2021/09/01 04:23:04;;;;;;;2.70;1.70;;;;;;;;;;5046121;28;20511;-74
2021/09/01 04:25:30;;;;;;;0.90;0.80;;;;;;;;;;5046078;28;20460;-74
2021/09/01 04:27:56;;;;;;;1.40;1.20;;;;;;;;;;5045692;28;20436;-73
2021/09/01 04:30:22;;;;;;;1.30;1.00;;;;;;;;;;5036576;28;20431;-72
2021/09/01 04:32:48;;;;;;;1.83;1.73;;;;;;;;;;5033367;28;20432;-73
2021/09/01 04:35:14;;;;;;;2.43;1.63;;;;;;;;;;5033311;28;20538;-72
2021/09/01 04:37:39;;;;;;;3.00;1.00;;;;;;;;;;5032083;28;20431;-72
2021/09/01 04:40:06;;;;;;;2.23;1.00;;;;;;;;;;5031709;28;20442;-72
2021/09/01 04:42:32;;;;;;;1.10;1.00;;;;;;;;;;5033627;28;20843;-72
2021/09/01 04:44:58;;;;;;;1.33;1.10;;;;;;;;;;5031843;28;20449;-73
2021/09/01 04:47:24;;;;;;;3.00;1.00;;;;;;;;;;5032140;28;20431;-72
2021/09/01 04:49:50;;;;;;;1.25;1.13;;;;;;;;;;5032767;28;20426;-71
2021/09/01 04:52:16;;;;;;;1.63;1.53;;;;;;;;;;5030547;28;20654;-73
2021/09/01 04:54:42;;;;;;;1.60;1.40;;;;;;;;;;5033424;28;20434;-72
2021/09/01 04:57:07;;;;;;;2.10;1.37;;;;;;;;;;5025902;28;20449;-71
2021/09/01 04:59:33;;;;;;;1.63;1.53;;;;;;;;;;5034198;28;20588;-73
2021/09/01 05:01:59;;;;;;;1.10;1.00;;;;;;;;;;5034108;28;20458;-73
2021/09/01 05:04:25;;;;;;;1.03;0.93;;;;;;;;;;5031588;28;20446;-73
2021/09/01 05:06:51;;;;;;;2.10;1.23;;;;;;;;;;5033816;28;20454;-73
2021/09/01 05:09:17;;;;;;;1.27;1.10;;;;;;;;;;5034899;28;20862;-73
2021/09/01 05:11:43;;;;;;;1.67;1.07;;;;;;;;;;5034534;28;20417;-73
2021/09/01 05:14:09;;;;;;;2.37;0.70;;;;;;;;;;5032807;28;20790;-73
2021/09/01 05:16:35;;;;;;;2.57;2.37;;;;;;;;;;5034004;28;20452;-73
2021/09/01 05:19:01;;;;;;;1.10;0.90;;;;;;;;;;5032729;28;20454;-74
2021/09/01 05:21:29;;;;;;;1.07;0.97;;;;;;;;;;5033293;28;20972;-73
2021/09/01 05:23:56;;;;;;;5.33;3.67;;;;;;;;;;5032665;28;20433;-73
2021/09/01 05:26:26;;;;;;;16.17;1.70;;;;;;;;;;5033793;28;20855;-73
2021/09/01 05:28:52;;;;;;;1.00;0.90;;;;;;;;;;5035458;28;20439;-74
2021/09/01 05:31:19;;;;;;;1.25;1.15;;;;;;;;;;5034404;28;20184;-73
2021/09/01 05:33:50;;;;;;;1.00;0.90;;;;;;;;;;5031583;28;20212;-73
2021/09/01 05:36:17;;;;;;;1.02;0.93;;;;;;;;;;5031978;28;20211;-73
2021/09/01 05:38:45;;;;;;;6.10;1.93;;;;;;;;;;5033956;28;20198;-73
2021/09/01 05:41:12;;;;;;;1.90;1.73;;;;;;;;;;5033417;28;20467;-72
2021/09/01 05:43:39;;;;;;;2.20;2.00;;;;;;;;;;5034238;28;20653;-73
2021/09/01 05:46:05;;;;;;;3.28;1.92;;;;;;;;;;5013991;28;20228;-73
2021/09/01 05:48:31;;;;;;;4.27;1.97;;;;;;;;;;5021386;28;20208;-72
2021/09/01 05:50:57;;;;;;;1.63;1.20;;;;;;;;;;5033390;28;20430;-72
2021/09/01 05:53:24;;;;;;;0.80;0.77;;;;;;;;;;5033630;28;20650;-71
2021/09/01 05:55:51;;;;;;;1.52;1.05;;;;;;;;;;5035155;28;20525;-72
2021/09/01 05:58:18;;;;;;;1.65;1.42;;;;;;;;;;5044876;28;20182;-72
2021/09/01 06:00:44;;;;;;;1.73;1.63;;;;;;;;;;5051113;28;20685;-72
2021/09/01 06:03:30;;;;;;;2.65;1.65;;;;;;;;;;5033366;28;20781;-72
2021/09/01 06:05:57;;;;;;;2.30;1.90;;;;;;;;;;5029328;28;20232;-73
2021/09/01 06:08:24;;;;;;;2.13;1.53;;;;;;;;;;5033183;28;20493;-72
2021/09/01 06:10:53;;;;;;;1.58;1.48;;;;;;;;;;5032698;28;20404;-72
2021/09/01 06:13:19;;;;;;;2.50;1.42;;;;;;;;;;5034862;28;20538;-73
2021/09/01 06:15:46;;;;;;;1.10;1.00;;;;;;;;;;5033062;28;20675;-70
2021/09/01 06:18:12;;;;;;;3.13;3.03;;;;;;;;;;5032900;28;20476;-71
2021/09/01 06:20:40;;;;;;;1.63;1.50;;;;;;;;;;5032558;28;20199;-72
2021/09/01 06:23:06;;;;;;;1.80;1.70;;;;;;;;;;5033317;28;20184;-72
2021/09/01 06:25:32;;;;;;;0.80;0.60;;;;;;;;;;5025791;28;20801;-72
2021/09/01 06:27:58;;;;;;;3.58;2.45;;;;;;;;;;5032589;28;20180;-71
2021/09/01 06:30:24;;;;;;;4.85;1.75;;;;;;;;;;5032812;28;20234;-73
2021/09/01 06:32:50;;;;;;;1.55;0.82;;;;;;;;;;5032869;28;20269;-72
2021/09/01 06:35:16;;;;;;;2.53;2.35;;;;;;;;;;5032264;28;20199;-73
2021/09/01 06:37:44;;;;;;;1.60;1.42;;;;;;;;;;5029801;28;20194;-73
2021/09/01 06:40:11;;;;;;;2.15;1.30;;;;;;;;;;5031575;28;20666;-72
2021/09/01 06:42:37;;;;;;;2.30;1.43;;;;;;;;;;5032052;28;20203;-73
2021/09/01 06:45:04;;;;;;;1.17;1.07;;;;;;;;;;5032273;28;20435;-71
2021/09/01 06:47:39;;;;;;;1.77;1.63;;;;;;;;;;5029846;28;20780;-72
2021/09/01 06:50:05;;;;;;;1.90;1.80;;;;;;;;;;5032158;28;20710;-71
2021/09/01 06:52:31;;;;;;;2.13;1.58;;;;;;;;;;5030266;28;20844;-72
2021/09/01 06:57:28;;;;;;;1.53;1.43;;;;;;;;;;5014416;28;20474;-71
2021/09/01 06:59:54;;;;;;;3.43;1.43;;;;;;;;;;5012480;28;20414;-71
2021/09/01 07:02:20;;;;;;;2.80;1.50;;;;;;;;;;5011907;28;21014;-71
2021/09/01 07:04:46;;;;;;;1.33;1.20;;;;;;;;;;5011540;28;20421;-71
2021/09/01 07:07:12;;;;;;;1.67;1.20;;;;;;;;;;5011082;28;20467;-72
2021/09/01 07:09:38;;;;;;;1.83;0.93;;;;;;;;;;5011747;28;20497;-71
2021/09/01 07:12:04;;;;;;;2.77;2.57;;;;;;;;;;5011884;28;20416;-71
2021/09/01 07:14:30;;;;;;;2.30;1.33;;;;;;;;;;5011778;28;20428;-71
2021/09/01 07:16:55;;;;;;;5.23;2.23;;;;;;;;;;5011444;28;20436;-71
2021/09/01 07:19:21;;;;;;;5.57;1.83;;;;;;;;;;5011503;28;20427;-71
2021/09/01 07:21:47;;;;;;;2.00;1.90;;;;;;;;;;5011409;28;20464;-71
2021/09/01 07:24:13;;;;;;;2.73;1.60;;;;;;;;;;5011859;28;20455;-71
2021/09/01 07:26:39;;;;;;;2.00;1.57;;;;;;;;;;5011700;28;20461;-71
2021/09/01 07:29:05;;;;;;;1.10;0.97;;;;;;;;;;5018497;28;20428;-71
2021/09/01 07:31:31;;;;;;;2.20;1.93;;;;;;;;;;5011772;28;20402;-71
2021/09/01 07:33:58;;;;;;;3.20;2.10;;;;;;;;;;5011526;28;20433;-71
2021/09/01 07:36:24;;;;;;;7.75;2.15;;;;;;;;;;5011046;28;20816;-71
2021/09/01 07:38:50;;;;;;;5.27;3.70;;;;;;;;;;5010263;28;20248;-71
2021/09/01 07:41:15;;;;;;;4.80;2.50;;;;;;;;;;5011639;28;20885;-71
2021/09/01 07:43:42;;;;;;;2.50;1.67;;;;;;;;;;5007777;28;21144;-71
2021/09/01 07:46:08;;;;;;;2.17;1.23;;;;;;;;;;5003215;28;20432;-71
2021/09/01 07:48:34;;;;;;;2.20;2.00;;;;;;;;;;5011443;28;20779;-71
2021/09/01 07:51:00;;;;;;;1.87;1.47;;;;;;;;;;5011470;28;20776;-71
2021/09/01 07:53:26;;;;;;;0.80;0.70;;;;;;;;;;5010863;28;20515;-71
2021/09/01 07:55:53;;;;;;;1.50;1.20;;;;;;;;;;5009041;28;20507;-71
2021/09/01 07:58:19;;;;;;;1.37;1.20;;;;;;;;;;5019178;28;20813;-71
2021/09/01 08:00:45;;;;;;;2.93;2.60;;;;;;;;;;5013649;28;20474;-71
2021/09/01 08:03:11;;;;;;;4.37;1.90;;;;;;;;;;5015066;28;20420;-71
2021/09/01 08:05:37;;;;;;;1.97;1.87;;;;;;;;;;5014242;28;20808;-71
2021/09/01 08:08:03;;;;;;;2.97;1.53;;;;;;;;;;5014622;28;20420;-71
2021/09/01 08:10:29;;;;;;;1.60;1.50;;;;;;;;;;5003260;28;20433;-71
2021/09/01 08:12:55;;;;;;;3.43;2.10;;;;;;;;;;5004016;28;20436;-71
2021/09/01 08:15:21;;;;;;;1.63;1.47;;;;;;;;;;5014765;28;20894;-71
2021/09/01 08:17:47;;;;;;;1.87;1.77;;;;;;;;;;5014105;28;20494;-71
2021/09/01 08:20:13;;;;;;;5.37;2.43;;;;;;;;;;5014331;28;20511;-71
2021/09/01 08:22:39;;;;;;;5.97;1.70;;;;;;;;;;5014655;28;20830;-71
2021/09/01 08:25:05;;;;;;;5.73;3.00;;;;;;;;;;5013925;28;20933;-71
2021/09/01 08:27:31;;;;;;;9.80;2.30;;;;;;;;;;5021979;28;20419;-71
2021/09/01 08:29:57;;;;;;;1.97;1.77;;;;;;;;;;5034152;28;20414;-71
2021/09/01 08:32:23;;;;;;;2.10;1.90;;;;;;;;;;5029488;28;20808;-71
2021/09/01 08:34:49;;;;;;;1.13;1.00;;;;;;;;;;5011367;28;20528;-71
2021/09/01 08:37:15;;;;;;;2.90;2.00;;;;;;;;;;5010146;28;20481;-71
2021/09/01 08:39:41;;;;;;;2.20;2.00;;;;;;;;;;5009967;28;20436;-71
2021/09/01 08:42:07;;;;;;;4.63;2.80;;;;;;;;;;5012362;28;20511;-71
2021/09/01 08:44:33;;;;;;;1.20;0.87;;;;;;;;;;5014204;28;20416;-71
2021/09/01 08:47:00;;;;;;;12.00;3.63;;;;;;;;;;5011789;28;20459;-71
2021/09/01 08:49:27;;;;;;;1.70;1.60;;;;;;;;;;5009344;28;21060;-72
2021/09/01 08:51:53;;;;;;;2.63;2.30;;;;;;;;;;5013360;28;20429;-71
2021/09/01 08:54:19;;;;;;;1.70;1.57;;;;;;;;;;5013074;28;20508;-72
2021/09/01 08:56:45;;;;;;;3.23;1.43;;;;;;;;;;5011472;28;20476;-70
2021/09/01 08:59:11;;;;;;;1.93;1.63;;;;;;;;;;5002021;28;20452;-71
2021/09/01 09:01:40;;;;;;;1.10;1.00;;;;;;;;;;4997897;28;20455;-70
2021/09/01 09:04:07;;;;;;;1.97;1.77;;;;;;;;;;4999350;28;20495;-71
2021/09/01 09:06:46;;;;;;;1.50;1.30;;;;;;;;;;5007680;28;20422;-71
2021/09/01 09:09:13;;;;;;;4.03;1.27;;;;;;;;;;5013855;28;20763;-71
2021/09/01 09:11:39;;;;;;;1.30;1.13;;;;;;;;;;5011809;28;20879;-70
2021/09/01 09:14:22;;;;;;;4.67;1.90;;;;;;;;;;5013350;28;20448;-71
2021/09/01 09:16:58;;;;;;;1.37;1.27;;;;;;;;;;5011698;28;20459;-70
2021/09/01 09:19:41;;;;;;;1.50;1.40;;;;;;;;;;5010350;28;20531;-71
2021/09/01 09:22:07;;;;;;;1.73;1.37;;;;;;;;;;5013208;28;20900;-71
2021/09/01 09:24:34;;;;;;;12.33;1.57;;;;;;;;;;5012728;28;20441;-71
2021/09/01 09:27:00;;;;;;;1.67;1.20;;;;;;;;;;5012111;28;20464;-71
2021/09/01 09:29:30;;;;;;;1.10;1.00;;;;;;;;;;5011722;28;21100;-71
2021/09/01 09:32:06;;;;;;;0.83;0.60;;;;;;;;;;5011696;28;20489;-71
2021/09/01 09:34:35;;;;;;;1.10;0.90;;;;;;;;;;5011100;28;20452;-70
2021/09/01 09:37:05;;;;;;;1.30;0.83;;;;;;;;;;5011657;28;20457;-71
2021/09/01 09:39:46;;;;;;;0.90;0.70;;;;;;;;;;5013062;28;20421;-71
2021/09/01 09:42:12;;;;;;;1.20;1.10;;;;;;;;;;5012312;28;20837;-71
2021/09/01 09:44:38;;;;;;;1.00;0.80;;;;;;;;;;5013083;28;20417;-70
2021/09/01 09:47:04;;;;;;;0.90;0.80;;;;;;;;;;5011074;28;20985;-71
2021/09/01 09:49:31;;;;;;;1.60;1.50;;;;;;;;;;5012815;28;20396;-71
2021/09/01 09:51:57;;;;;;;1.63;1.00;;;;;;;;;;5007596;28;20467;-71
2021/09/01 09:54:24;;;;;;;0.90;0.80;;;;;;;;;;5012926;28;20428;-71
2021/09/01 09:56:51;;;;;;;1.40;1.30;;;;;;;;;;5020496;28;20461;-71
2021/09/01 09:59:21;;;;;;;1.57;1.47;;;;;;;;;;5017562;28;20418;-71
2021/09/01 10:01:48;;;;;;;1.30;1.10;;;;;;;;;;5012822;28;20558;-71
2021/09/01 10:04:14;;;;;;;1.00;0.90;;;;;;;;;;5012452;28;20441;-70
2021/09/01 10:06:41;;;;;;;1.93;0.73;;;;;;;;;;5011944;28;20521;-71
2021/09/01 10:09:07;;;;;;;1.47;1.13;;;;;;;;;;5012807;28;20770;-71
2021/09/01 10:11:34;;;;;;;2.60;1.37;;;;;;;;;;5012745;28;20424;-71
2021/09/01 10:14:02;;;;;;;2.53;2.40;;;;;;;;;;5012267;28;20403;-70
2021/09/01 10:16:30;;;;;;;1.90;1.80;;;;;;;;;;5012243;28;21011;-71
2021/09/01 10:19:02;;;;;;;0.80;0.77;;;;;;;;;;5012270;28;20423;-70
2021/09/01 10:21:30;;;;;;;1.67;1.57;;;;;;;;;;5011710;28;20438;-70
2021/09/01 10:23:56;;;;;;;2.10;1.20;;;;;;;;;;5009167;28;20426;-70
2021/09/01 10:26:32;;;;;;;1.63;1.53;;;;;;;;;;5009257;28;20415;-70
2021/09/01 10:28:59;;;;;;;1.00;0.90;;;;;;;;;;5014276;28;20389;-71
2021/09/01 10:31:27;;;;;;;1.50;1.37;;;;;;;;;;5010878;28;20432;-71
2021/09/01 10:33:54;;;;;;;3.80;1.60;;;;;;;;;;5009736;28;20441;-70
2021/09/01 10:36:23;;;;;;;0.80;0.77;;;;;;;;;;5011848;28;20787;-71
2021/09/01 10:38:50;;;;;;;6.83;2.20;;;;;;;;;;5012261;28;20420;-71
2021/09/01 10:41:38;;;;;;;1.57;1.03;;;;;;;;;;5012033;28;20464;-71
2021/09/01 10:44:07;;;;;;;2.23;1.80;;;;;;;;;;5012221;28;20432;-70
2021/09/01 10:46:51;;;;;;;0.90;0.80;;;;;;;;;;5011465;28;20418;-71
2021/09/01 10:49:18;;;;;;;3.50;2.30;;;;;;;;;;5012205;28;20417;-71
2021/09/01 10:51:48;;;;;;;1.27;0.97;;;;;;;;;;5011926;28;20431;-71
2021/09/01 10:54:33;;;;;;;0.93;0.83;;;;;;;;;;5011897;28;20383;-71
2021/09/01 10:56:59;;;;;;;2.23;1.57;;;;;;;;;;5019274;28;20511;-71
2021/09/01 10:59:27;;;;;;;1.77;1.60;;;;;;;;;;5014834;28;20448;-71
2021/09/01 11:02:06;;;;;;;1.20;0.80;;;;;;;;;;5009896;28;20989;-70
2021/09/01 11:04:32;;;;;;;3.63;1.70;;;;;;;;;;5011680;28;20481;-71
2021/09/01 11:07:03;;;;;;;3.87;2.70;;;;;;;;;;5011359;28;20848;-71
2021/09/01 11:09:29;;;;;;;3.87;2.93;;;;;;;;;;5011924;28;20466;-70
2021/09/01 11:11:56;;;;;;;1.43;1.33;;;;;;;;;;5011892;28;20387;-71
2021/09/01 11:14:33;;;;;;;3.17;2.53;;;;;;;;;;5011722;28;20430;-70
2021/09/01 11:17:00;;;;;;;1.50;1.13;;;;;;;;;;5011034;28;20419;-71
2021/09/01 11:19:27;;;;;;;15.90;3.23;;;;;;;;;;5011052;28;20440;-71
2021/09/01 11:21:55;;;;;;;1.37;1.27;;;;;;;;;;5022415;28;20467;-71
2021/09/01 11:24:21;;;;;;;12.83;4.17;;;;;;;;;;5031463;28;20877;-71
2021/09/01 11:26:52;;;;;;;1.73;1.37;;;;;;;;;;5031163;28;20530;-70
2021/09/01 11:29:18;;;;;;;1.97;1.60;;;;;;;;;;5018735;28;20515;-70
2021/09/01 11:31:53;;;;;;;2.13;1.93;;;;;;;;;;5011064;28;20497;-70
2021/09/01 11:34:19;;;;;;;2.27;2.07;;;;;;;;;;5013761;28;20406;-71
2021/09/01 11:36:45;;;;;;;5.47;2.70;;;;;;;;;;5015243;28;20503;-71
2021/09/01 11:39:12;;;;;;;1.47;1.13;;;;;;;;;;5015322;28;20423;-70
2021/09/01 11:41:38;;;;;;;1.73;1.40;;;;;;;;;;5015718;28;20440;-71
2021/09/01 11:44:05;;;;;;;2.23;1.60;;;;;;;;;;5014546;28;20498;-71
2021/09/01 11:46:34;;;;;;;2.40;2.20;;;;;;;;;;5014918;28;20439;-72
2021/09/01 11:49:10;;;;;;;1.33;1.20;;;;;;;;;;5015421;28;20413;-70
2021/09/01 11:51:37;;;;;;;7.87;3.33;;;;;;;;;;5020802;28;20441;-71
2021/09/01 11:54:03;;;;;;;2.17;1.07;;;;;;;;;;5034725;28;20391;-70
2021/09/01 11:56:29;;;;;;;3.10;2.80;;;;;;;;;;5026403;28;20884;-70
2021/09/01 11:58:59;;;;;;;2.53;1.20;;;;;;;;;;5005799;28;20870;-71
2021/09/01 12:01:25;;;;;;;1.20;1.10;;;;;;;;;;5014077;28;20443;-71
2021/09/01 12:03:52;;;;;;;2.00;1.90;;;;;;;;;;5014986;28;20432;-71
2021/09/01 12:06:18;;;;;;;1.47;1.37;;;;;;;;;;5014441;28;20437;-71
2021/09/01 12:08:44;;;;;;;7.80;1.77;;;;;;;;;;5014784;28;20754;-70
2021/09/01 12:11:10;;;;;;;2.43;1.27;;;;;;;;;;5014928;28;20392;-71
2021/09/01 12:13:42;;;;;;;1.33;1.13;;;;;;;;;;5014141;28;20433;-72
2021/09/01 12:16:09;;;;;;;1.70;1.37;;;;;;;;;;5014213;28;20427;-71
2021/09/01 12:18:51;;;;;;;2.00;1.90;;;;;;;;;;5014715;28;20423;-72
2021/09/01 12:21:17;;;;;;;3.10;1.30;;;;;;;;;;5022364;28;20439;-70
2021/09/01 12:23:44;;;;;;;1.97;1.63;;;;;;;;;;5015605;28;20483;-71
2021/09/01 12:26:10;;;;;;;1.87;1.70;;;;;;;;;;5012507;28;20986;-71
2021/09/01 12:28:47;;;;;;;4.43;1.57;;;;;;;;;;5013650;28;20421;-71
2021/09/01 12:31:23;;;;;;;1.93;1.73;;;;;;;;;;5012629;28;20494;-71
2021/09/01 12:33:49;;;;;;;3.03;2.13;;;;;;;;;;5014167;28;20440;-71
2021/09/01 12:36:29;;;;;;;3.00;2.40;;;;;;;;;;5013713;28;20403;-70
2021/09/01 12:38:55;;;;;;;3.13;2.33;;;;;;;;;;5014174;28;20453;-71
2021/09/01 12:41:22;;;;;;;0.80;0.80;;;;;;;;;;5012442;28;20464;-71
2021/09/01 12:43:48;;;;;;;2.40;2.10;;;;;;;;;;5013543;28;20418;-70
2021/09/01 12:46:22;;;;;;;1.67;1.57;;;;;;;;;;5013906;28;20501;-70
2021/09/01 12:48:48;;;;;;;2.13;1.10;;;;;;;;;;5013826;28;20571;-71
2021/09/01 12:51:15;;;;;;;2.40;2.30;;;;;;;;;;5020895;28;20433;-71
2021/09/01 12:53:41;;;;;;;3.53;1.20;;;;;;;;;;5031613;28;20419;-70
2021/09/01 12:56:07;;;;;;;4.03;3.73;;;;;;;;;;5052502;22;20500;-72
2021/09/01 12:58:32;;;;;;;5.03;3.87;;;;;;;;;;5021905;28;20904;-72
2021/09/01 13:00:58;;;;;;;1.57;1.47;;;;;;;;;;5018561;28;21083;-71
2021/09/01 13:03:24;;;;;;;5.13;2.03;;;;;;;;;;5012248;28;20436;-70
2021/09/01 13:05:50;;;;;;;3.90;2.20;;;;;;;;;;5013383;28;20800;-70
2021/09/01 13:08:18;;;;;;;1.30;1.20;;;;;;;;;;5013982;28;20904;-71
2021/09/01 13:10:44;;;;;;;2.50;1.83;;;;;;;;;;5012219;28;20464;-70
2021/09/01 13:13:11;;;;;;;1.70;1.53;;;;;;;;;;4975374;28;20430;-71
2021/09/01 13:15:37;;;;;;;5.60;2.30;;;;;;;;;;4974653;28;20443;-71
2021/09/01 13:18:03;;;;;;;6.10;1.80;;;;;;;;;;4989114;28;20993;-71
2021/09/01 13:20:29;;;;;;;2.93;1.90;;;;;;;;;;4981949;28;20439;-71
2021/09/01 13:22:55;;;;;;;5.47;2.13;;;;;;;;;;4979397;28;20774;-70
2021/09/01 13:25:22;;;;;;;2.03;1.37;;;;;;;;;;4974437;28;20411;-71
2021/09/01 13:27:48;;;;;;;5.43;1.63;;;;;;;;;;5007579;28;20487;-70
2021/09/01 13:30:15;;;;;;;1.10;1.00;;;;;;;;;;4985775;28;20432;-70
2021/09/01 13:32:41;;;;;;;3.07;1.93;;;;;;;;;;4999840;28;20441;-70
2021/09/01 13:35:07;;;;;;;1.43;1.10;;;;;;;;;;4980219;28;20963;-70
2021/09/01 13:37:33;;;;;;;2.40;1.70;;;;;;;;;;4976544;28;20429;-71
2021/09/01 13:39:59;;;;;;;2.67;2.50;;;;;;;;;;4993749;28;20493;-71
2021/09/01 13:42:26;;;;;;;2.83;1.60;;;;;;;;;;4983318;28;21144;-70
2021/09/01 13:44:52;;;;;;;4.20;3.07;;;;;;;;;;4992454;28;20414;-70
2021/09/01 13:47:17;;;;;;;3.60;2.20;;;;;;;;;;5011890;28;21104;-70
2021/09/01 13:49:43;;;;;;;2.50;2.40;;;;;;;;;;5003255;28;20415;-70
2021/09/01 13:52:10;;;;;;;3.30;1.60;;;;;;;;;;4993272;28;20504;-70
2021/09/01 13:54:36;;;;;;;1.83;1.73;;;;;;;;;;4991402;28;20429;-70
2021/09/01 13:57:02;;;;;;;2.17;1.97;;;;;;;;;;4991237;28;20469;-70
2021/09/01 13:59:28;;;;;;;1.47;1.27;;;;;;;;;;4994197;28;20458;-70
2021/09/01 14:01:55;;;;;;;1.73;1.23;;;;;;;;;;5008099;28;20512;-70
2021/09/01 14:04:21;;;;;;;2.57;2.00;;;;;;;;;;4990719;28;20749;-70
2021/09/01 14:06:46;;;;;;;1.57;1.47;;;;;;;;;;4998248;28;20482;-71
2021/09/01 14:09:12;;;;;;;3.97;2.00;;;;;;;;;;4973118;28;20847;-71
2021/09/01 14:11:43;;;;;;;0.97;0.90;;;;;;;;;;4973278;28;20842;-71
2021/09/01 14:14:09;;;;;;;2.40;1.53;;;;;;;;;;5004464;28;20788;-70
2021/09/01 14:16:36;;;;;;;2.40;1.37;;;;;;;;;;4973702;28;20458;-70
2021/09/01 14:19:02;;;;;;;1.60;1.50;;;;;;;;;;4973490;28;20431;-70
2021/09/01 14:21:28;;;;;;;1.90;1.80;;;;;;;;;;4973461;28;20473;-71
2021/09/01 14:23:54;;;;;;;4.50;4.10;;;;;;;;;;4973753;28;20422;-71
2021/09/01 14:26:21;;;;;;;2.07;1.87;;;;;;;;;;4988918;28;20488;-70
2021/09/01 14:28:47;;;;;;;2.50;1.27;;;;;;;;;;4991571;28;20445;-71
2021/09/01 14:31:13;;;;;;;1.73;1.40;;;;;;;;;;4997284;28;20444;-70
2021/09/01 14:33:39;;;;;;;4.20;2.20;;;;;;;;;;4992277;28;20430;-71
2021/09/01 14:36:06;;;;;;;1.93;1.83;;;;;;;;;;4995799;28;20445;-71
2021/09/01 14:38:32;;;;;;;1.03;0.93;;;;;;;;;;5008222;28;20397;-70
2021/09/01 14:40:58;;;;;;;2.30;2.20;;;;;;;;;;5001932;28;20555;-71
2021/09/01 14:43:25;;;;;;;3.33;2.40;;;;;;;;;;4992486;28;20540;-71
2021/09/01 14:45:52;;;;;;;2.63;2.43;;;;;;;;;;4992352;28;20831;-71
2021/09/01 14:48:18;;;;;;;1.23;1.13;;;;;;;;;;4986246;28;20442;-70